Time;durP1;ratioP1;P1;durP2;ratioP2;P2;SDS_P1;SDS_P2;PMS_P1;PMS_P2;Temp;Humidity;BMP_temperature;BMP_pressure;BME280_temperature;BME280_humidity;BME280_pressure;Samples;Min_cycle;Max_cycle;Signal;HPM_P1;HPM_P2
2023/10/02 00:01:48;;;;;;;0.00;0.00;;;;;;;17.89;100.00;101928.72;5106396;28;20047;-44
2023/10/02 00:04:19;;;;;;;0.00;0.00;;;;;;;17.88;100.00;101927.06;5112762;28;20038;-46
2023/10/02 00:06:46;;;;;;;0.00;0.00;;;;;;;17.88;100.00;101934.38;5112885;28;20023;-45
2023/10/02 00:09:13;;;;;;;0.00;0.00;;;;;;;17.83;100.00;101931.44;5112424;28;20023;-46
2023/10/02 00:11:41;;;;;;;0.00;0.00;;;;;;;17.80;100.00;101937.25;5099772;28;20026;-46
2023/10/02 00:14:34;;;;;;;0.00;0.00;;;;;;;17.80;100.00;101931.81;5103527;28;20027;-46
2023/10/02 00:17:03;;;;;;;0.00;0.00;;;;;;;17.75;100.00;101941.41;5112901;28;20053;-45
2023/10/02 00:19:38;;;;;;;0.00;0.00;;;;;;;17.74;100.00;101934.28;5112167;28;20427;-44
2023/10/02 00:22:34;;;;;;;0.00;0.00;;;;;;;17.76;100.00;101943.09;5112497;28;20046;-43
2023/10/02 00:24:55;;;;;;;0.00;0.00;;;;;;;17.70;100.00;101943.91;5091516;28;20093;-46
2023/10/02 00:27:21;;;;;;;0.00;0.00;;;;;;;17.66;100.00;101945.34;5103813;28;20024;-45
2023/10/02 00:29:52;;;;;;;0.00;0.00;;;;;;;17.63;100.00;101940.31;5091295;28;20023;-46
2023/10/02 00:32:19;;;;;;;0.00;0.00;;;;;;;17.61;100.00;101939.66;5096734;28;20124;-45
2023/10/02 00:34:49;;;;;;;0.00;0.00;;;;;;;17.57;100.00;101941.13;5102135;28;20023;-45
2023/10/02 00:37:15;;;;;;;0.00;0.00;;;;;;;17.58;100.00;101936.50;5099867;28;20043;-45
2023/10/02 00:39:41;;;;;;;0.00;0.00;;;;;;;17.54;100.00;101944.25;5110976;28;20019;-43
2023/10/02 00:42:24;;;;;;;0.00;0.00;;;;;;;17.57;100.00;101940.28;5106210;28;20369;-45
2023/10/02 00:44:56;;;;;;;0.00;0.00;;;;;;;17.55;100.00;101935.03;5108303;28;20036;-46
2023/10/02 00:50:21;;;;;;;0.00;0.00;;;;;;;17.47;100.00;101932.47;5092150;28;20043;-48
2023/10/02 00:53:04;;;;;;;0.00;0.00;;;;;;;17.46;100.00;101930.81;5091812;28;20036;-46
2023/10/02 00:55:32;;;;;;;0.00;0.00;;;;;;;17.44;100.00;101932.88;5104375;28;20389;-49
2023/10/02 00:57:59;;;;;;;0.00;0.00;;;;;;;17.43;100.00;101925.75;5099854;28;20036;-46
2023/10/02 01:00:35;;;;;;;0.00;0.00;;;;;;;17.45;100.00;101921.78;5106203;28;20063;-44
2023/10/02 01:03:05;;;;;;;0.00;0.00;;;;;;;17.49;100.00;101919.50;5106046;28;20110;-46
2023/10/02 01:05:41;;;;;;;0.00;0.00;;;;;;;17.45;100.00;101926.38;5089845;28;20037;-46
2023/10/02 01:08:42;;;;;;;0.00;0.00;;;;;;;17.43;100.00;101918.44;5091154;28;20035;-45
2023/10/02 01:11:13;;;;;;;0.00;0.00;;;;;;;17.42;100.00;101932.22;5091031;28;20035;-45
2023/10/02 01:13:39;;;;;;;0.00;0.00;;;;;;;17.39;100.00;101932.66;5101766;28;20036;-45
2023/10/02 01:16:08;;;;;;;0.00;0.00;;;;;;;17.36;100.00;101931.16;5110339;28;20072;-46
2023/10/02 01:18:35;;;;;;;0.00;0.00;;;;;;;17.36;100.00;101928.44;5103112;28;20027;-48
2023/10/02 01:21:09;;;;;;;0.00;0.00;;;;;;;17.34;100.00;101930.50;5102573;28;20047;-46
2023/10/02 01:24:07;;;;;;;0.00;0.00;;;;;;;17.36;100.00;101927.59;5091434;28;20062;-45
2023/10/02 01:26:43;;;;;;;0.00;0.00;;;;;;;17.37;100.00;101929.28;5110175;28;20066;-43
2023/10/02 01:29:11;;;;;;;0.00;0.00;;;;;;;17.33;100.00;101924.25;5100608;28;20038;-46
2023/10/02 01:31:44;;;;;;;0.00;0.00;;;;;;;17.29;100.00;101933.00;5090672;28;20082;-47
2023/10/02 01:34:10;;;;;;;0.00;0.00;;;;;;;17.25;100.00;101935.28;5091326;28;20032;-45
2023/10/02 01:36:39;;;;;;;0.00;0.00;;;;;;;17.21;100.00;101933.16;5094837;28;20459;-45
2023/10/02 01:39:14;;;;;;;0.00;0.00;;;;;;;17.17;100.00;101938.16;5090345;28;20073;-45
2023/10/02 01:41:48;;;;;;;0.00;0.00;;;;;;;17.15;100.00;101926.63;5092496;28;20165;-47
2023/10/02 01:44:18;;;;;;;0.00;0.00;;;;;;;17.18;100.00;101933.56;5101075;28;20112;-47
2023/10/02 01:46:49;;;;;;;0.00;0.00;;;;;;;17.15;100.00;101937.50;5109251;28;20118;-44
2023/10/02 01:49:24;;;;;;;0.00;0.00;;;;;;;17.11;100.00;101934.38;5108430;28;20478;-45
2023/10/02 01:51:53;;;;;;;0.00;0.00;;;;;;;17.10;100.00;101932.66;5104337;28;20515;-48
2023/10/02 01:54:19;;;;;;;0.00;0.00;;;;;;;17.06;100.00;101935.97;5091130;28;20024;-44
2023/10/02 01:56:47;;;;;;;0.00;0.00;;;;;;;17.03;100.00;101930.94;5105304;28;20035;-46
2023/10/02 01:59:19;;;;;;;0.00;0.00;;;;;;;17.03;100.00;101923.59;5106551;28;20027;-46
2023/10/02 02:01:52;;;;;;;0.00;0.00;;;;;;;17.06;100.00;101925.09;5098303;28;20048;-45
2023/10/02 02:04:33;;;;;;;0.00;0.00;;;;;;;17.02;100.00;101919.22;5113679;28;20425;-45
2023/10/02 02:07:00;;;;;;;0.00;0.00;;;;;;;16.97;100.00;101916.25;5113948;27;20472;-47
2023/10/02 02:09:37;;;;;;;0.00;0.00;;;;;;;16.98;100.00;101915.22;5114441;27;20020;-45
2023/10/02 02:12:05;;;;;;;0.00;0.00;;;;;;;16.96;100.00;101919.19;5101945;28;20039;-43
2023/10/02 02:14:31;;;;;;;0.00;0.00;;;;;;;16.97;100.00;101913.53;5094038;28;20506;-46
2023/10/02 02:16:57;;;;;;;0.00;0.00;;;;;;;16.89;100.00;101909.09;5094431;28;20043;-44
2023/10/02 02:19:23;;;;;;;0.00;0.00;;;;;;;16.85;100.00;101907.81;5094382;28;20024;-49
2023/10/02 02:21:49;;;;;;;0.00;0.00;;;;;;;16.84;100.00;101916.16;5094187;28;20024;-49
2023/10/02 02:24:14;;;;;;;0.00;0.00;;;;;;;16.85;100.00;101912.38;5094253;28;20047;-46
2023/10/02 02:26:40;;;;;;;0.00;0.00;;;;;;;16.82;100.00;101910.06;5094114;28;20488;-46
2023/10/02 02:29:26;;;;;;;0.00;0.00;;;;;;;16.79;100.00;101911.31;5096248;28;20374;-43
2023/10/02 02:31:53;;;;;;;0.00;0.00;;;;;;;16.78;100.00;101912.34;5094155;28;20028;-46
2023/10/02 02:34:20;;;;;;;0.00;0.00;;;;;;;16.77;100.00;101909.78;5092966;28;20112;-48
2023/10/02 02:36:49;;;;;;;0.00;0.00;;;;;;;16.74;100.00;101911.00;5094098;28;20028;-42
2023/10/02 02:39:17;;;;;;;0.00;0.00;;;;;;;16.72;100.00;101906.81;5112056;28;20024;-47
2023/10/02 02:41:43;;;;;;;0.00;0.00;;;;;;;16.72;100.00;101918.56;5114228;28;20028;-47
2023/10/02 02:44:36;;;;;;;0.00;0.00;;;;;;;16.69;100.00;101916.19;5114443;28;20034;-46
2023/10/02 02:47:08;;;;;;;0.00;0.00;;;;;;;16.70;100.00;101909.75;5103201;28;20024;-48
2023/10/02 02:49:51;;;;;;;0.00;0.00;;;;;;;16.65;100.00;101904.06;5093748;28;20044;-44
2023/10/02 02:52:17;;;;;;;0.00;0.00;;;;;;;16.64;100.00;101905.06;5093539;28;20028;-46
2023/10/02 02:54:47;;;;;;;0.00;0.00;;;;;;;16.59;100.00;101897.53;5100150;28;20338;-47
2023/10/02 02:57:24;;;;;;;0.00;0.00;;;;;;;16.58;100.00;101903.16;5112953;28;20031;-44
2023/10/02 02:59:51;;;;;;;0.00;0.00;;;;;;;16.57;100.00;101904.19;5114340;28;20142;-45
2023/10/02 03:02:22;;;;;;;0.00;0.00;;;;;;;16.54;100.00;101913.59;5113851;28;20024;-47
2023/10/02 03:04:50;;;;;;;0.00;0.00;;;;;;;16.56;100.00;101907.94;5097149;28;20020;-44
2023/10/02 03:07:29;;;;;;;0.00;0.00;;;;;;;16.56;100.00;101907.94;5094189;28;20598;-46
2023/10/02 03:09:56;;;;;;;0.00;0.00;;;;;;;16.52;100.00;101906.66;5093333;28;20111;-46
2023/10/02 03:12:23;;;;;;;0.00;0.00;;;;;;;16.52;100.00;101907.50;5096516;28;20459;-45
2023/10/02 03:14:51;;;;;;;0.00;0.00;;;;;;;16.53;100.00;101916.47;5095361;28;20047;-46
2023/10/02 03:17:28;;;;;;;;;;;;;;;16.56;100.00;101907.94;5107921;28;20103;-47
2023/10/02 03:19:54;;;;;;;0.00;0.00;;;;;;;16.51;100.00;101903.09;5106322;28;19912;-45
2023/10/02 03:22:20;;;;;;;0.00;0.00;;;;;;;16.50;100.00;101903.28;5096630;28;20031;-45
2023/10/02 03:24:46;;;;;;;0.00;0.00;;;;;;;16.49;100.00;101907.88;5104933;28;20020;-47
2023/10/02 03:27:14;;;;;;;0.00;0.00;;;;;;;16.49;100.00;101896.19;5096458;28;20378;-46
2023/10/02 03:29:39;;;;;;;0.00;0.00;;;;;;;16.46;100.00;101892.81;5099787;28;20027;-44
2023/10/02 03:32:05;;;;;;;0.00;0.00;;;;;;;16.47;100.00;101893.66;5098580;27;20023;-45
2023/10/02 03:34:33;;;;;;;0.00;0.00;;;;;;;16.45;100.00;101907.41;5093887;28;20055;-46
2023/10/02 03:37:08;;;;;;;0.00;0.00;;;;;;;16.42;100.00;101918.69;5093440;28;20032;-45
2023/10/02 03:39:52;;;;;;;0.00;0.00;;;;;;;16.40;100.00;101909.91;5098117;28;20383;-45
2023/10/02 03:42:25;;;;;;;0.00;0.00;;;;;;;16.44;100.00;101897.59;5109036;28;20485;-46
2023/10/02 03:44:54;;;;;;;0.00;0.00;;;;;;;16.44;100.00;101911.19;5096574;28;20028;-42
2023/10/02 03:47:21;;;;;;;0.00;0.00;;;;;;;16.44;100.00;101905.75;5096448;28;20032;-44
2023/10/02 03:49:47;;;;;;;0.00;0.00;;;;;;;16.42;100.00;101905.09;5097416;28;20039;-44
2023/10/02 03:52:16;;;;;;;0.00;0.00;;;;;;;16.44;100.00;101894.03;5111169;28;20028;-47
2023/10/02 03:54:43;;;;;;;0.00;0.00;;;;;;;16.42;100.00;101891.50;5102526;28;20047;-44
2023/10/02 03:57:11;;;;;;;0.00;0.00;;;;;;;16.41;100.00;101883.56;5090615;28;20028;-45
2023/10/02 03:59:51;;;;;;;0.00;0.00;;;;;;;16.40;100.00;101881.88;5092067;28;20058;-46
2023/10/02 04:02:30;;;;;;;0.00;0.00;;;;;;;16.39;100.00;101886.47;5104964;28;20040;-44
2023/10/02 04:04:56;;;;;;;0.00;0.00;;;;;;;16.39;100.00;101885.63;5111255;28;20077;-48
2023/10/02 04:07:24;;;;;;;0.00;0.00;;;;;;;16.37;100.00;101880.38;5109974;27;20016;-45
2023/10/02 04:09:50;;;;;;;0.00;0.00;;;;;;;16.37;100.00;101876.84;5108977;28;20045;-45
2023/10/02 04:12:19;;;;;;;0.00;0.00;;;;;;;16.34;100.00;101891.66;5097885;28;20509;-48
2023/10/02 04:14:46;;;;;;;0.00;0.00;;;;;;;16.31;100.00;101894.75;5090026;28;20039;-44
2023/10/02 04:19:49;;;;;;;0.00;0.00;;;;;;;16.29;100.00;101890.56;5090207;28;20068;-46
2023/10/02 04:22:25;;;;;;;0.00;0.00;;;;;;;16.29;100.00;101890.56;5090022;28;20470;-45
2023/10/02 04:24:58;;;;;;;0.00;0.00;;;;;;;16.30;100.00;101890.38;5090155;28;20024;-45
2023/10/02 04:28:00;;;;;;;0.00;0.00;;;;;;;16.31;100.00;101893.94;5089401;28;20035;-46
2023/10/02 04:32:59;;;;;;;0.00;0.00;;;;;;;16.28;100.00;101889.72;5093652;28;20100;-43
2023/10/02 04:38:09;;;;;;;0.00;0.00;;;;;;;16.29;100.00;101894.09;5095997;28;20097;-44
2023/10/02 04:40:44;;;;;;;0.00;0.00;;;;;;;16.28;100.00;101895.16;5097941;28;20459;-47
2023/10/02 04:43:28;;;;;;;0.00;0.00;;;;;;;16.26;100.00;101902.66;5101205;28;20031;-49
2023/10/02 04:46:08;;;;;;;0.00;0.00;;;;;;;16.33;100.00;101905.44;5106698;28;20422;-47
2023/10/02 04:48:42;;;;;;;0.00;0.00;;;;;;;16.34;100.00;101901.69;5102004;28;20042;-48
2023/10/02 04:51:12;;;;;;;0.00;0.00;;;;;;;16.34;100.00;101907.13;5091641;28;20416;-48
2023/10/02 04:53:42;;;;;;;0.00;0.00;;;;;;;16.38;100.00;101909.25;5092210;28;20036;-49
2023/10/02 04:56:21;;;;;;;0.00;0.00;;;;;;;16.41;100.00;101908.03;5094247;28;20038;-44
2023/10/02 04:58:50;;;;;;;0.00;0.00;;;;;;;16.44;100.00;101908.47;5096555;28;20035;-44
2023/10/02 05:01:34;;;;;;;0.00;0.00;;;;;;;16.44;100.00;101900.31;5106289;28;20046;-45
2023/10/02 05:04:03;;;;;;;0.00;0.00;;;;;;;16.45;100.00;101901.16;5094483;28;20036;-46
2023/10/02 05:06:44;;;;;;;0.00;0.00;;;;;;;16.46;100.00;101897.41;5087671;28;20424;-45
2023/10/02 05:11:55;;;;;;;0.00;0.00;;;;;;;16.46;100.00;101892.81;5109802;28;20043;-50
2023/10/02 05:14:48;;;;;;;0.00;0.00;;;;;;;16.46;100.00;101887.38;5103595;28;20024;-48
2023/10/02 05:17:16;;;;;;;0.00;0.00;;;;;;;16.48;100.00;101889.06;5091337;28;20039;-47
2023/10/02 05:20:03;;;;;;;0.00;0.00;;;;;;;16.49;100.00;101885.31;5095971;28;20028;-46
2023/10/02 05:22:31;;;;;;;0.00;0.00;;;;;;;16.49;100.00;101885.31;5096931;28;20035;-46
2023/10/02 05:25:00;;;;;;;0.00;0.00;;;;;;;16.45;100.00;101903.88;5097056;28;20020;-43
2023/10/02 05:27:30;;;;;;;0.00;0.00;;;;;;;16.40;100.00;101909.91;5091241;28;20368;-46
2023/10/02 05:29:59;;;;;;;0.00;0.00;;;;;;;16.33;100.00;101906.28;5091446;28;20063;-43
2023/10/02 05:32:31;;;;;;;0.00;0.00;;;;;;;16.33;100.00;101900.84;5109933;28;20482;-43
2023/10/02 05:35:16;;;;;;;0.00;0.00;;;;;;;16.33;100.00;101900.84;5115141;27;20127;-48
2023/10/02 05:37:44;;;;;;;0.00;0.00;;;;;;;16.34;100.00;101905.22;5097368;28;20051;-45
2023/10/02 05:43:09;;;;;;;0.00;0.00;;;;;;;16.34;100.00;101905.22;5102388;28;20028;-44
2023/10/02 05:45:47;;;;;;;0.00;0.00;;;;;;;16.36;100.00;101914.03;5117240;27;20107;-46
2023/10/02 05:50:54;;;;;;;0.00;0.00;;;;;;;16.35;100.00;101917.78;5118183;27;19957;-43
2023/10/02 05:53:29;;;;;;;0.00;0.00;;;;;;;16.38;100.00;101928.28;5117658;27;20016;-48
2023/10/02 05:55:57;;;;;;;0.00;0.00;;;;;;;16.39;100.00;101924.50;5115964;27;20532;-43
2023/10/02 05:58:31;;;;;;;;;;;;;;;16.39;100.00;101924.50;5100859;28;20051;-45
2023/10/02 06:01:03;;;;;;;0.00;0.00;;;;;;;16.39;100.00;101927.22;5100563;27;19916;-45
2023/10/02 06:03:38;;;;;;;0.00;0.00;;;;;;;16.42;100.00;101929.56;5113559;28;20052;-48
2023/10/02 06:06:21;;;;;;;0.00;0.00;;;;;;;16.43;100.00;101931.25;5099806;27;20383;-47
2023/10/02 06:08:49;;;;;;;0.00;0.00;;;;;;;16.38;100.00;101933.72;5105070;28;20051;-45
2023/10/02 06:11:34;;;;;;;0.00;0.00;;;;;;;16.40;100.00;101937.06;5115825;28;20137;-44
2023/10/02 06:14:10;;;;;;;0.00;0.00;;;;;;;16.42;100.00;101932.28;5112043;27;20032;-43
2023/10/02 06:16:42;;;;;;;0.00;0.00;;;;;;;16.42;100.00;101928.72;5103231;28;20020;-46
2023/10/02 06:19:15;;;;;;;0.00;0.00;;;;;;;16.40;100.00;101941.66;5096516;28;20052;-45
2023/10/02 06:21:46;;;;;;;0.00;0.00;;;;;;;16.38;100.00;101935.59;5097255;28;20032;-48
2023/10/02 06:24:15;;;;;;;0.00;0.00;;;;;;;16.42;100.00;101943.13;5108781;28;20400;-46
2023/10/02 06:26:53;;;;;;;0.00;0.00;;;;;;;16.47;100.00;101942.56;5106103;27;20028;-47
2023/10/02 06:29:25;;;;;;;0.00;0.00;;;;;;;16.56;100.00;101945.97;5098142;28;20032;-42
2023/10/02 06:31:58;;;;;;;0.00;0.00;;;;;;;16.59;100.00;101942.91;5105077;27;20063;-48
2023/10/02 06:34:39;;;;;;;0.00;0.00;;;;;;;16.61;100.00;101948.97;5101914;28;20059;-50
2023/10/02 06:37:18;;;;;;;0.00;0.00;;;;;;;16.63;100.00;101953.16;5112483;27;20048;-46
2023/10/02 06:40:02;;;;;;;0.00;0.00;;;;;;;16.73;100.00;101952.84;5107378;27;20023;-45
2023/10/02 06:42:28;;;;;;;0.00;0.00;;;;;;;16.83;100.00;101934.34;5102491;28;20375;-40
2023/10/02 06:44:54;;;;;;;0.00;0.00;;;;;;;16.92;100.00;101939.63;5106028;28;20118;-45
2023/10/02 06:47:24;;;;;;;0.00;0.00;;;;;;;17.05;100.00;101931.59;5109708;27;20038;-45
2023/10/02 06:49:51;;;;;;;0.00;0.00;;;;;;;17.07;100.00;101932.22;5108639;28;20426;-48
2023/10/02 06:52:20;;;;;;;0.00;0.00;;;;;;;17.08;100.00;101933.91;5107470;27;20048;-45
2023/10/02 06:54:48;;;;;;;0.00;0.00;;;;;;;17.13;100.00;101942.31;5105180;28;20419;-44
2023/10/02 06:57:16;;;;;;;0.00;0.00;;;;;;;17.15;100.00;101939.41;5106109;28;20038;-47
2023/10/02 06:59:51;;;;;;;0.00;0.00;;;;;;;17.14;100.00;101949.44;5106917;28;20059;-48
2023/10/02 07:02:23;;;;;;;0.00;0.00;;;;;;;17.23;100.00;101940.06;5098084;27;20487;-47
2023/10/02 07:04:49;;;;;;;0.00;0.00;;;;;;;17.28;100.00;101950.38;5105386;28;20047;-48
2023/10/02 07:07:25;;;;;;;0.00;0.00;;;;;;;17.36;100.00;101952.94;5106324;28;20111;-43
2023/10/02 07:09:52;;;;;;;0.00;0.00;;;;;;;17.45;100.00;101950.88;5102299;28;20706;-44
2023/10/02 07:12:20;;;;;;;0.00;0.00;;;;;;;17.53;100.00;101937.09;5101880;28;20458;-46
2023/10/02 07:14:47;;;;;;;0.00;0.00;;;;;;;17.58;100.00;101937.34;5108142;28;20075;-46
2023/10/02 07:17:16;;;;;;;0.00;0.00;;;;;;;17.64;100.00;101930.25;5107124;27;20031;-42
2023/10/02 07:19:51;;;;;;;0.00;0.00;;;;;;;17.73;100.00;101935.31;5108225;28;20050;-48
2023/10/02 07:22:22;;;;;;;0.00;0.00;;;;;;;17.76;100.00;101934.91;5102554;27;20374;-48
2023/10/02 07:24:47;;;;;;;0.00;0.00;;;;;;;17.69;100.00;101939.50;5101391;28;20397;-44
2023/10/02 07:27:28;;;;;;;0.00;0.00;;;;;;;17.75;100.00;101952.31;5103476;28;20113;-47
2023/10/02 07:30:02;;;;;;;0.00;0.00;;;;;;;17.70;100.00;101959.41;5101972;28;20032;-46
2023/10/02 07:32:31;;;;;;;0.00;0.00;;;;;;;17.73;100.00;101962.56;5107685;27;20036;-47
2023/10/02 07:35:09;;;;;;;0.00;0.00;;;;;;;17.80;100.00;101959.91;5103723;28;20028;-43
2023/10/02 07:37:38;;;;;;;0.00;0.00;;;;;;;17.80;100.00;101964.50;5102536;27;20046;-47
2023/10/02 07:40:06;;;;;;;0.00;0.00;;;;;;;17.81;100.00;101971.63;5098363;28;21197;-45
2023/10/02 07:42:31;;;;;;;;;;;;;;;17.66;100.00;101972.56;5098790;27;20388;-47
2023/10/02 07:45:11;;;;;;;0.00;0.00;;;;;;;17.70;100.00;101960.25;5098315;28;19912;-45
2023/10/02 07:47:55;;;;;;;0.00;0.00;;;;;;;17.67;100.00;101967.97;5100481;28;20023;-44
2023/10/02 07:50:33;;;;;;;0.00;0.00;;;;;;;17.70;100.00;101975.75;5099984;28;20028;-45
2023/10/02 07:53:01;;;;;;;0.00;0.00;;;;;;;17.62;100.00;101967.75;5099379;27;20404;-44
2023/10/02 07:55:27;;;;;;;0.00;0.00;;;;;;;17.63;100.00;101981.13;5097310;28;20020;-46
2023/10/02 07:57:58;;;;;;;0.00;0.00;;;;;;;17.62;100.00;101984.06;5103379;28;20028;-46
2023/10/02 08:00:39;;;;;;;0.00;0.00;;;;;;;17.58;100.00;101978.19;5099840;28;20043;-44
2023/10/02 08:05:56;;;;;;;0.00;0.00;;;;;;;17.59;100.00;101979.88;5100771;28;20074;-46
2023/10/02 08:08:23;;;;;;;0.00;0.00;;;;;;;17.72;100.00;101958.16;5106714;27;20381;-45
2023/10/02 08:10:52;;;;;;;0.00;0.00;;;;;;;17.88;100.00;101950.72;5099667;28;20024;-47
2023/10/02 08:13:35;;;;;;;0.00;0.00;;;;;;;17.97;100.00;101960.38;5102603;28;20812;-45
2023/10/02 08:16:15;;;;;;;0.00;0.00;;;;;;;17.98;100.00;101945.72;5098007;28;20123;-45
2023/10/02 08:19:10;;;;;;;0.00;0.00;;;;;;;18.07;100.00;101954.56;5099269;27;20051;-45
2023/10/02 08:21:36;;;;;;;0.00;0.00;;;;;;;18.15;100.00;101952.47;5103200;27;20036;-47
2023/10/02 08:24:11;;;;;;;0.00;0.00;;;;;;;18.15;100.00;101948.94;5098114;28;20046;-44
2023/10/02 08:26:40;;;;;;;0.00;0.00;;;;;;;18.18;100.00;101952.06;5104632;27;20336;-45
2023/10/02 08:29:13;;;;;;;0.00;0.00;;;;;;;18.25;100.00;101951.25;5104246;27;20028;-42
2023/10/02 08:31:43;;;;;;;0.00;0.00;;;;;;;18.41;100.00;101948.16;5104709;27;20035;-43
2023/10/02 08:34:12;;;;;;;0.00;0.00;;;;;;;18.56;100.00;101951.53;5100616;28;20024;-44
2023/10/02 08:36:37;;;;;;;0.00;0.00;;;;;;;18.85;100.00;101949.44;5096764;28;20452;-44
2023/10/02 08:39:04;;;;;;;0.00;0.00;;;;;;;19.05;100.00;101953.03;5102149;28;20114;-44
2023/10/02 08:41:30;;;;;;;0.00;0.00;;;;;;;19.26;100.00;101949.22;5096066;27;20114;-44
2023/10/02 08:43:55;;;;;;;0.00;0.00;;;;;;;19.33;100.00;101943.75;5104913;27;20115;-46
2023/10/02 08:46:23;;;;;;;0.00;0.00;;;;;;;19.34;100.00;101939.13;5099210;27;20103;-44
2023/10/02 08:48:55;;;;;;;0.00;0.00;;;;;;;19.21;100.00;101934.53;5097960;28;20111;-44
2023/10/02 08:51:33;;;;;;;0.00;0.00;;;;;;;19.43;100.00;101935.97;5099522;28;20380;-43
2023/10/02 08:53:59;;;;;;;0.00;0.00;;;;;;;19.50;100.00;101933.19;5095851;27;20027;-43
2023/10/02 08:56:37;;;;;;;0.00;0.00;;;;;;;19.29;100.00;101939.75;5098438;28;20035;-43
2023/10/02 08:59:28;;;;;;;0.00;0.00;;;;;;;19.16;100.00;101932.44;5098030;28;20028;-47
2023/10/02 09:02:08;;;;;;;0.00;0.00;;;;;;;19.25;100.00;101928.44;5099670;28;20093;-44
2023/10/02 09:04:33;;;;;;;0.00;0.00;;;;;;;19.41;100.00;101940.78;5098453;28;20032;-46
2023/10/02 09:07:14;;;;;;;0.00;0.00;;;;;;;19.29;100.00;101937.03;5104267;28;20088;-43
2023/10/02 09:09:45;;;;;;;0.00;0.00;;;;;;;19.52;100.00;101931.94;5097545;28;20036;-46
2023/10/02 09:12:15;;;;;;;0.00;0.00;;;;;;;19.47;100.00;101920.81;5106127;28;20028;-46
2023/10/02 09:14:41;;;;;;;0.00;0.00;;;;;;;19.63;100.00;101922.22;5111847;28;20225;-46
2023/10/02 09:17:12;;;;;;;0.00;0.00;;;;;;;19.62;100.00;101930.66;5106139;28;20267;-43
2023/10/02 09:19:46;;;;;;;0.00;0.00;;;;;;;19.46;100.00;101930.06;5097439;28;20039;-48
2023/10/02 09:22:16;;;;;;;0.00;0.00;;;;;;;19.42;100.00;101926.06;5103026;28;20385;-43
2023/10/02 09:24:55;;;;;;;0.00;0.00;;;;;;;19.53;100.00;101922.66;5093641;28;20024;-45
2023/10/02 09:27:30;;;;;;;0.00;0.00;;;;;;;19.61;100.00;101921.59;5099485;28;20466;-49
2023/10/02 09:30:17;;;;;;;0.00;0.00;;;;;;;19.73;100.00;101927.28;5090700;28;20116;-43
2023/10/02 09:32:50;;;;;;;0.00;0.00;;;;;;;19.97;100.00;101916.66;5096680;28;20054;-44
2023/10/02 09:35:29;;;;;;;0.00;0.00;;;;;;;20.05;100.00;101916.41;5096100;28;20032;-46
2023/10/02 09:38:04;;;;;;;0.00;0.00;;;;;;;20.20;100.00;101906.00;5104664;28;20488;-45
2023/10/02 09:40:53;;;;;;;0.00;0.00;;;;;;;20.36;100.00;101899.16;5105716;28;20039;-45
2023/10/02 09:43:19;;;;;;;0.00;0.00;;;;;;;20.51;100.00;101896.09;5095542;28;20377;-47
2023/10/02 09:45:47;;;;;;;0.00;0.00;;;;;;;20.67;100.00;101901.06;5102852;28;20020;-45
2023/10/02 09:51:06;;;;;;;0.00;0.00;;;;;;;20.81;100.00;101880.72;5100434;28;20104;-45
2023/10/02 09:53:34;;;;;;;0.00;0.00;;;;;;;20.99;100.00;101887.31;5105880;28;20537;-44
2023/10/02 09:56:19;;;;;;;0.00;0.00;;;;;;;20.73;100.00;101872.81;5098323;28;20036;-45
2023/10/02 09:58:55;;;;;;;0.00;0.00;;;;;;;20.67;100.00;101873.72;5091760;28;20067;-44
2023/10/02 10:03:53;;;;;;;0.00;0.00;;;;;;;20.58;100.00;101875.88;5089048;28;20043;-46
2023/10/02 10:06:19;;;;;;;0.00;0.00;;;;;;;20.68;100.00;101880.03;5090090;28;20096;-47
2023/10/02 10:14:42;;;;;;;0.00;0.00;;;;;;;20.87;100.00;101872.69;5119928;27;20499;-45
2023/10/02 10:17:17;;;;;;;0.00;0.00;;;;;;;21.07;100.00;101872.50;5097951;28;20126;-43
2023/10/02 10:20:07;;;;;;;0.00;0.00;;;;;;;21.27;100.00;101873.09;5104928;27;20530;-45
2023/10/02 10:22:38;;;;;;;0.00;0.00;;;;;;;21.46;100.00;101874.81;5102987;27;20072;-43
2023/10/02 10:25:32;;;;;;;0.00;0.00;;;;;;;21.83;100.00;101871.19;5111932;28;20031;-43
2023/10/02 10:28:05;;;;;;;0.00;0.00;;;;;;;21.98;100.00;101862.50;5106021;27;20032;-46
2023/10/02 10:30:45;;;;;;;0.00;0.00;;;;;;;21.70;100.00;101862.06;5103435;28;20036;-45
2023/10/02 10:35:55;;;;;;;0.00;0.00;;;;;;;22.34;100.00;101851.44;5100516;28;20126;-48
2023/10/02 10:41:31;;;;;;;0.00;0.00;;;;;;;22.19;100.00;101841.97;5088980;28;20114;-45
2023/10/02 10:43:57;;;;;;;0.00;0.00;;;;;;;21.97;100.00;101849.88;5097390;28;20036;-44
2023/10/02 10:46:30;;;;;;;0.00;0.00;;;;;;;21.95;100.00;101855.59;5093254;28;20115;-43
2023/10/02 10:49:08;;;;;;;0.00;0.00;;;;;;;22.12;100.00;101842.91;5093683;28;20060;-46
2023/10/02 10:51:34;;;;;;;0.00;0.00;;;;;;;22.13;100.00;101844.56;5093693;28;20322;-44
2023/10/02 10:54:19;;;;;;;0.00;0.00;;;;;;;22.08;100.00;101852.66;5093015;28;20031;-45
2023/10/02 10:56:45;;;;;;;0.00;0.00;;;;;;;22.00;100.00;101852.16;5091789;28;20054;-45
2023/10/02 10:59:11;;;;;;;0.00;0.00;;;;;;;21.92;100.00;101847.84;5092880;28;20020;-44
2023/10/02 11:01:37;;;;;;;0.00;0.00;;;;;;;21.76;100.00;101849.31;5093407;28;20050;-43
2023/10/02 11:04:03;;;;;;;0.00;0.00;;;;;;;21.79;100.00;101840.63;5093121;28;20073;-45
2023/10/02 11:06:29;;;;;;;0.00;0.00;;;;;;;21.98;100.00;101841.41;5093232;28;20067;-45
2023/10/02 11:09:16;;;;;;;0.00;0.00;;;;;;;21.99;100.00;101834.88;5091791;28;20020;-46
2023/10/02 11:11:49;;;;;;;0.00;0.00;;;;;;;21.89;100.00;101846.41;5092789;28;20020;-44
2023/10/02 11:14:23;;;;;;;0.00;0.00;;;;;;;21.95;100.00;101846.53;5093033;28;20426;-45
2023/10/02 11:16:54;;;;;;;0.00;0.00;;;;;;;21.97;100.00;101844.41;5092986;28;20016;-46
2023/10/02 11:22:21;;;;;;;0.00;0.00;;;;;;;22.14;100.00;101831.69;5093032;28;20056;-42
2023/10/02 11:24:55;;;;;;;0.00;0.00;;;;;;;22.41;100.00;101829.38;5093300;28;20058;-44
2023/10/02 11:27:24;;;;;;;0.00;0.00;;;;;;;22.64;100.00;101825.81;5092679;28;20020;-42
2023/10/02 11:30:03;;;;;;;0.00;0.00;;;;;;;22.40;100.00;101813.16;5090628;28;20032;-45
2023/10/02 11:32:53;;;;;;;0.00;0.00;;;;;;;22.68;100.00;101816.03;5091722;28;20089;-42
2023/10/02 11:35:28;;;;;;;0.00;0.00;;;;;;;23.34;100.00;101821.31;5092420;28;20020;-45
2023/10/02 11:37:54;;;;;;;0.00;0.00;;;;;;;23.21;100.00;101816.94;5093045;28;20031;-44
2023/10/02 11:40:24;;;;;;;0.00;0.00;;;;;;;23.42;100.00;101807.19;5092783;28;20036;-45
2023/10/02 11:42:49;;;;;;;0.00;0.00;;;;;;;23.45;100.00;101813.03;5092860;28;20363;-46
2023/10/02 11:45:15;;;;;;;0.00;0.00;;;;;;;23.54;100.00;101808.00;5092064;28;20039;-43
2023/10/02 11:47:40;;;;;;;0.00;0.00;;;;;;;23.77;100.00;101804.31;5092398;28;20053;-42
2023/10/02 11:50:06;;;;;;;0.00;0.00;;;;;;;23.90;100.00;101796.84;5092227;28;20055;-44
2023/10/02 11:52:32;;;;;;;0.00;0.00;;;;;;;24.01;100.00;101801.44;5092098;28;20020;-48
2023/10/02 11:54:57;;;;;;;0.00;0.00;;;;;;;24.24;100.00;101795.78;5091336;28;20043;-44
2023/10/02 11:57:22;;;;;;;0.00;0.00;;;;;;;24.36;100.00;101786.63;5091903;28;20512;-44
2023/10/02 11:59:49;;;;;;;0.00;0.00;;;;;;;24.71;100.00;101786.34;5092025;28;20044;-45
2023/10/02 12:02:16;;;;;;;0.00;0.00;;;;;;;24.47;100.00;101774.72;5092257;28;20475;-43
2023/10/02 12:04:43;;;;;;;0.00;0.00;;;;;;;24.57;100.00;101774.88;5092062;28;20039;-46
2023/10/02 12:07:10;;;;;;;0.00;0.00;;;;;;;24.80;100.00;101775.72;5093846;28;20060;-42
2023/10/02 12:09:35;;;;;;;0.00;0.00;;;;;;;24.86;100.00;101774.72;5103406;28;20474;-43
2023/10/02 12:12:01;;;;;;;0.00;0.00;;;;;;;24.63;100.00;101768.34;5093738;28;20425;-44
2023/10/02 12:14:28;;;;;;;0.00;0.00;;;;;;;24.36;100.00;101762.69;5090086;28;20059;-45
2023/10/02 12:16:57;;;;;;;0.00;0.00;;;;;;;24.26;100.00;101752.34;5100801;28;20031;-44
2023/10/02 12:19:24;;;;;;;0.00;0.00;;;;;;;23.82;100.00;101754.94;5107856;28;20443;-44
2023/10/02 12:21:50;;;;;;;0.00;0.00;;;;;;;23.63;100.00;101764.47;5106246;28;20038;-45